Time;durP1;ratioP1;P1;durP2;ratioP2;P2;SDS_P1;SDS_P2;PMS_P1;PMS_P2;Temp;Humidity;BMP_temperature;BMP_pressure;BME280_temperature;BME280_humidity;BME280_pressure;Samples;Min_cycle;Max_cycle;Signal;HPM_P1;HPM_P2
2023/04/26 00:01:59;;;;;;;3.88;3.20;;;14.00;87.00;;;;;;5013501;28;20117;-84
2023/04/26 00:04:27;;;;;;;3.17;2.65;;;14.00;87.10;;;;;;4996512;28;20045;-84
2023/04/26 00:06:53;;;;;;;3.28;2.92;;;14.00;87.20;;;;;;5013108;28;20022;-83
2023/04/26 00:09:19;;;;;;;3.72;3.00;;;14.00;87.20;;;;;;4996377;28;20127;-83
2023/04/26 00:11:45;;;;;;;3.63;3.08;;;14.00;87.20;;;;;;5012405;28;20045;-83
2023/04/26 00:14:10;;;;;;;3.75;3.03;;;14.00;87.30;;;;;;4994765;28;20025;-84
2023/04/26 00:16:36;;;;;;;3.63;3.03;;;14.00;87.40;;;;;;5020336;28;20401;-84
2023/04/26 00:19:03;;;;;;;4.63;3.22;;;13.90;87.30;;;;;;5021040;28;20042;-84
2023/04/26 00:21:28;;;;;;;4.47;3.60;;;13.90;87.60;;;;;;5017600;28;20029;-84
2023/04/26 00:23:54;;;;;;;3.35;2.95;;;13.90;87.60;;;;;;5012308;28;20044;-84
2023/04/26 00:26:20;;;;;;;3.13;2.80;;;13.90;87.80;;;;;;4996632;28;20018;-87
2023/04/26 00:28:46;;;;;;;3.47;3.13;;;13.90;87.80;;;;;;5016310;28;20109;-87
2023/04/26 00:31:15;;;;;;;3.53;2.70;;;13.90;88.00;;;;;;5001305;28;20109;-86
2023/04/26 00:33:42;;;;;;;3.30;3.00;;;13.80;88.00;;;;;;5014340;28;20036;-86
2023/04/26 00:36:07;;;;;;;3.55;2.95;;;13.80;88.10;;;;;;5005704;28;20033;-85
2023/04/26 00:38:33;;;;;;;3.35;3.05;;;13.80;88.80;;;;;;5030456;28;20032;-86
2023/04/26 00:40:59;;;;;;;3.08;2.75;;;13.90;88.50;;;;;;5010434;28;20053;-85
2023/04/26 00:43:24;;;;;;;4.88;3.20;;;13.90;88.40;;;;;;5009630;28;20084;-86
2023/04/26 00:45:51;;;;;;;3.10;2.70;;;13.90;88.40;;;;;;5013230;28;20462;-84
2023/04/26 00:48:17;;;;;;;4.10;3.25;;;13.90;88.40;;;;;;4996420;28;20025;-83
2023/04/26 00:50:43;;;;;;;3.25;2.88;;;13.90;88.30;;;;;;4995859;28;20022;-85
2023/04/26 00:53:09;;;;;;;3.05;2.75;;;13.90;88.20;;;;;;5010349;28;20096;-86
2023/04/26 00:55:35;;;;;;;3.05;2.75;;;13.90;88.10;;;;;;4996105;28;20458;-85
2023/04/26 00:58:01;;;;;;;3.38;2.85;;;13.90;88.10;;;;;;5013468;28;20057;-85
2023/04/26 01:00:27;;;;;;;3.47;2.88;;;13.90;88.10;;;;;;4996979;28;20474;-85
2023/04/26 01:02:52;;;;;;;3.00;2.70;;;13.90;88.20;;;;;;5013165;28;20029;-84
2023/04/26 01:05:18;;;;;;;3.42;2.72;;;13.90;88.30;;;;;;5013144;28;20393;-84
2023/04/26 01:07:44;;;;;;;3.55;3.00;;;13.80;88.30;;;;;;5012268;28;20022;-86
2023/04/26 01:10:11;;;;;;;4.25;3.03;;;13.80;88.50;;;;;;5013057;28;20470;-85
2023/04/26 01:12:37;;;;;;;5.43;3.28;;;13.90;89.10;;;;;;4995943;28;20112;-87
2023/04/26 01:15:04;;;;;;;5.30;3.17;;;13.90;88.70;;;;;;4995535;28;20041;-88
2023/04/26 01:17:30;;;;;;;3.67;2.97;;;13.90;88.40;;;;;;5013262;28;20029;-88
2023/04/26 01:19:56;;;;;;;3.70;3.08;;;13.80;88.40;;;;;;5013501;28;20046;-88
2023/04/26 01:22:21;;;;;;;3.08;2.75;;;13.70;88.40;;;;;;5013021;28;20030;-87
2023/04/26 01:24:51;;;;;;;3.25;2.75;;;13.70;88.40;;;;;;4996110;28;20052;-86
2023/04/26 01:27:17;;;;;;;4.00;3.47;;;13.80;88.50;;;;;;4995626;28;20022;-87
2023/04/26 01:29:43;;;;;;;5.50;3.35;;;13.70;88.40;;;;;;5012562;28;20489;-87
2023/04/26 01:32:08;;;;;;;4.30;3.10;;;13.70;88.60;;;;;;4995128;28;20502;-87
2023/04/26 01:34:34;;;;;;;4.25;2.97;;;13.70;88.60;;;;;;5013302;28;20565;-87
2023/04/26 01:37:00;;;;;;;4.40;3.03;;;13.70;88.70;;;;;;5013678;28;20030;-87
2023/04/26 01:39:26;;;;;;;4.50;3.30;;;13.70;88.40;;;;;;4997457;28;20505;-87
2023/04/26 01:41:52;;;;;;;4.57;2.97;;;13.70;88.30;;;;;;5028171;28;20113;-87
2023/04/26 01:44:18;;;;;;;4.03;3.20;;;13.70;88.30;;;;;;5013352;28;20129;-87
2023/04/26 01:46:44;;;;;;;5.07;3.22;;;13.70;88.20;;;;;;4995809;28;20080;-87
2023/04/26 01:49:10;;;;;;;5.05;3.40;;;13.60;88.20;;;;;;4995401;28;20072;-88
2023/04/26 01:51:35;;;;;;;5.40;3.67;;;13.60;88.30;;;;;;4995788;28;20026;-89
2023/04/26 01:54:01;;;;;;;4.05;3.13;;;13.60;88.40;;;;;;4995539;28;20062;-86
2023/04/26 01:56:27;;;;;;;3.65;3.08;;;13.60;88.50;;;;;;4995403;28;20033;-85
2023/04/26 01:58:56;;;;;;;3.80;3.35;;;13.60;88.50;;;;;;5013138;28;20026;-84
2023/04/26 02:01:22;;;;;;;4.10;3.30;;;13.60;88.50;;;;;;5012902;28;20113;-83
2023/04/26 02:03:48;;;;;;;3.63;3.05;;;13.50;88.50;;;;;;5011694;28;20503;-82
2023/04/26 02:06:14;;;;;;;5.05;3.10;;;13.40;88.50;;;;;;4995497;28;20736;-83
2023/04/26 02:08:40;;;;;;;3.70;3.30;;;13.40;88.70;;;;;;5013613;28;20057;-86
2023/04/26 02:11:06;;;;;;;4.22;3.55;;;13.40;88.70;;;;;;5022112;28;20112;-85
2023/04/26 02:13:31;;;;;;;4.78;3.42;;;13.30;88.80;;;;;;5025167;28;20090;-86
2023/04/26 02:15:58;;;;;;;3.80;3.05;;;13.40;89.50;;;;;;5016781;28;20026;-86
2023/04/26 02:18:24;;;;;;;6.28;3.58;;;13.40;89.00;;;;;;5025362;28;20078;-86
2023/04/26 02:20:49;;;;;;;4.38;3.38;;;13.40;88.90;;;;;;5018831;28;20112;-85
2023/04/26 02:23:15;;;;;;;4.10;3.47;;;13.40;88.80;;;;;;5026905;28;20120;-86
2023/04/26 02:25:46;;;;;;;4.40;3.30;;;13.50;88.80;;;;;;4998839;28;20121;-85
2023/04/26 02:28:12;;;;;;;3.78;3.30;;;13.50;88.60;;;;;;5009364;28;20021;-84
2023/04/26 02:30:38;;;;;;;4.15;3.00;;;13.40;88.40;;;;;;5016698;28;20399;-84
2023/04/26 02:33:03;;;;;;;4.45;3.58;;;13.40;88.40;;;;;;5015850;28;20041;-85
2023/04/26 02:35:29;;;;;;;4.57;3.33;;;13.40;88.40;;;;;;4998034;28;20520;-84
2023/04/26 02:37:55;;;;;;;3.83;3.45;;;13.30;88.40;;;;;;5015944;28;20038;-84
2023/04/26 02:40:21;;;;;;;4.80;3.38;;;13.20;88.30;;;;;;5019702;28;20079;-85
2023/04/26 02:42:47;;;;;;;5.40;3.67;;;13.20;88.20;;;;;;4998716;28;20033;-85
2023/04/26 02:45:13;;;;;;;3.85;3.30;;;13.10;88.00;;;;;;5015846;28;20030;-84
2023/04/26 02:47:39;;;;;;;3.33;2.63;;;13.10;88.10;;;;;;5016433;28;20029;-84
2023/04/26 02:50:06;;;;;;;3.60;3.25;;;13.00;88.00;;;;;;5016301;28;20026;-84
2023/04/26 02:52:33;;;;;;;3.38;3.08;;;13.00;88.10;;;;;;5015842;28;20037;-84
2023/04/26 02:54:59;;;;;;;4.55;3.75;;;13.10;88.00;;;;;;5016367;28;20037;-84
2023/04/26 02:57:25;;;;;;;5.90;3.60;;;13.00;88.00;;;;;;5015057;28;20030;-83
2023/04/26 02:59:51;;;;;;;6.03;3.60;;;13.00;88.10;;;;;;5015815;28;20037;-83
2023/04/26 03:02:17;;;;;;;5.18;4.25;;;13.10;88.30;;;;;;5015377;28;20365;-83
2023/04/26 03:04:42;;;;;;;5.78;3.80;;;13.10;88.30;;;;;;5015127;28;20096;-84
2023/04/26 03:07:08;;;;;;;5.03;4.00;;;13.10;88.20;;;;;;4997675;28;20122;-84
2023/04/26 03:09:36;;;;;;;4.28;3.88;;;13.20;88.10;;;;;;4998045;28;20036;-84
2023/04/26 03:12:02;;;;;;;4.80;3.80;;;13.20;88.00;;;;;;5016014;28;20080;-84
2023/04/26 03:14:28;;;;;;;5.53;4.82;;;13.20;88.20;;;;;;5016124;28;20057;-85
2023/04/26 03:16:54;;;;;;;5.60;4.32;;;13.10;88.20;;;;;;5025104;28;20041;-85
2023/04/26 03:19:20;;;;;;;5.75;4.38;;;13.20;88.20;;;;;;5004679;28;20167;-83
2023/04/26 03:21:45;;;;;;;5.07;4.57;;;13.10;88.20;;;;;;5016601;28;20038;-85
2023/04/26 03:24:11;;;;;;;4.97;4.47;;;13.20;88.10;;;;;;5015209;28;20022;-85
2023/04/26 03:26:37;;;;;;;6.55;5.85;;;13.20;88.00;;;;;;4997813;28;20519;-85
2023/04/26 03:29:03;;;;;;;6.25;5.03;;;13.20;87.90;;;;;;5014460;28;20057;-85
2023/04/26 03:31:28;;;;;;;7.75;6.45;;;13.20;88.00;;;;;;5002275;28;20451;-85
2023/04/26 03:33:54;;;;;;;8.75;7.70;;;13.10;88.00;;;;;;4999268;28;20032;-85
2023/04/26 03:36:20;;;;;;;12.30;9.00;;;13.10;88.10;;;;;;5015163;28;20033;-84
2023/04/26 03:38:45;;;;;;;11.48;8.85;;;13.20;88.10;;;;;;5015155;28;20389;-84
2023/04/26 03:41:12;;;;;;;11.32;8.88;;;13.10;88.00;;;;;;5015149;28;20037;-83
2023/04/26 03:43:37;;;;;;;9.15;7.55;;;13.10;87.90;;;;;;5014275;28;20030;-84
2023/04/26 03:46:03;;;;;;;8.95;7.40;;;13.10;87.80;;;;;;5014428;28;20041;-85
2023/04/26 03:48:29;;;;;;;8.02;6.70;;;13.10;88.00;;;;;;5009239;28;20058;-84
2023/04/26 03:50:55;;;;;;;8.88;6.88;;;13.10;88.00;;;;;;4997807;28;20465;-84
2023/04/26 03:53:20;;;;;;;8.63;6.78;;;13.00;87.90;;;;;;5013941;28;20160;-84
2023/04/26 03:55:46;;;;;;;9.35;7.60;;;13.00;88.00;;;;;;5011934;28;20045;-83
2023/04/26 03:58:12;;;;;;;8.18;7.07;;;13.00;88.00;;;;;;5013656;28;20029;-84
2023/04/26 04:00:41;;;;;;;8.90;6.97;;;13.00;88.20;;;;;;5014353;28;20034;-85
2023/04/26 04:03:07;;;;;;;8.82;6.15;;;13.00;88.10;;;;;;5004108;28;20371;-85
2023/04/26 04:05:32;;;;;;;6.15;5.55;;;13.00;88.10;;;;;;4996490;28;20030;-83
2023/04/26 04:07:58;;;;;;;9.38;5.72;;;13.00;88.10;;;;;;4995817;28;20058;-83
2023/04/26 04:10:24;;;;;;;6.53;5.82;;;13.00;88.20;;;;;;5014279;28;20085;-87
2023/04/26 04:12:51;;;;;;;9.57;6.25;;;13.00;88.20;;;;;;4996485;28;20030;-85
2023/04/26 04:15:18;;;;;;;8.82;5.45;;;13.00;88.20;;;;;;5014608;28;20069;-85
2023/04/26 04:17:43;;;;;;;6.65;5.90;;;13.00;88.20;;;;;;4996553;28;20041;-85
2023/04/26 04:20:10;;;;;;;7.45;5.88;;;13.00;88.30;;;;;;4996563;28;20034;-85
2023/04/26 04:22:38;;;;;;;8.73;6.38;;;13.00;88.20;;;;;;5014302;28;20108;-84
2023/04/26 04:25:05;;;;;;;8.15;5.55;;;13.00;88.00;;;;;;5016187;28;20057;-84
2023/04/26 04:27:31;;;;;;;8.35;6.07;;;13.00;88.10;;;;;;5014021;28;20112;-84
2023/04/26 04:29:56;;;;;;;8.60;6.22;;;13.00;88.20;;;;;;5013637;28;20041;-85
2023/04/26 04:32:22;;;;;;;7.25;6.13;;;13.00;88.20;;;;;;5013382;28;20375;-85
2023/04/26 04:34:50;;;;;;;7.00;5.65;;;12.90;88.10;;;;;;5000113;28;20025;-85
2023/04/26 04:37:15;;;;;;;7.20;5.78;;;12.90;88.10;;;;;;5021251;28;20431;-85
2023/04/26 04:39:41;;;;;;;6.97;5.63;;;12.90;88.00;;;;;;5014327;28;20473;-84
2023/04/26 04:42:07;;;;;;;7.43;6.40;;;12.90;88.10;;;;;;4995813;28;20041;-84
2023/04/26 04:44:33;;;;;;;7.88;5.82;;;12.90;88.20;;;;;;5013685;28;20026;-84
2023/04/26 04:46:58;;;;;;;7.28;6.15;;;12.90;88.30;;;;;;5014106;28;20489;-84
2023/04/26 04:49:24;;;;;;;8.32;5.78;;;12.90;88.30;;;;;;5016554;28;20034;-84
2023/04/26 04:51:50;;;;;;;6.30;5.28;;;12.90;88.30;;;;;;5013513;28;20029;-84
2023/04/26 04:54:17;;;;;;;5.88;5.25;;;12.90;88.30;;;;;;5014066;28;20647;-83
2023/04/26 04:56:43;;;;;;;6.07;4.80;;;12.80;88.40;;;;;;4995671;28;20362;-88
2023/04/26 04:59:09;;;;;;;9.02;7.13;;;12.80;88.60;;;;;;5013391;28;20038;-87
2023/04/26 05:01:35;;;;;;;6.90;5.93;;;12.80;88.70;;;;;;4995852;28;20037;-85
2023/04/26 05:04:01;;;;;;;6.50;5.90;;;12.70;88.80;;;;;;5013273;28;20049;-86
2023/04/26 05:06:27;;;;;;;7.13;6.28;;;12.70;88.90;;;;;;5013421;28;20534;-84
2023/04/26 05:08:54;;;;;;;7.05;6.35;;;12.70;89.60;;;;;;5009316;28;20036;-84
2023/04/26 05:11:20;;;;;;;7.22;6.40;;;12.70;89.30;;;;;;4998660;28;20391;-84
2023/04/26 05:13:47;;;;;;;7.65;6.18;;;12.80;89.40;;;;;;5012544;28;20030;-84
2023/04/26 05:16:12;;;;;;;7.63;6.05;;;12.80;89.40;;;;;;5013364;28;20018;-85
2023/04/26 05:18:38;;;;;;;8.82;6.38;;;12.80;89.40;;;;;;4995556;28;20029;-85
2023/04/26 05:21:04;;;;;;;7.47;6.57;;;12.80;89.60;;;;;;4995972;28;20029;-84
2023/04/26 05:23:30;;;;;;;8.25;6.72;;;12.80;89.70;;;;;;5013055;28;20038;-86
2023/04/26 05:25:56;;;;;;;7.20;6.28;;;12.80;89.70;;;;;;5001010;28;20026;-85
2023/04/26 05:28:22;;;;;;;7.25;6.07;;;12.90;89.50;;;;;;4993637;28;20490;-86
2023/04/26 05:30:48;;;;;;;7.72;6.10;;;12.90;89.50;;;;;;5013545;28;20033;-85
2023/04/26 05:33:14;;;;;;;9.45;7.50;;;12.90;89.50;;;;;;5012757;28;20036;-84
2023/04/26 05:35:40;;;;;;;6.68;5.65;;;13.00;90.00;;;;;;5012872;28;20363;-84
2023/04/26 05:38:06;;;;;;;10.38;9.20;;;13.00;89.80;;;;;;5014613;28;20041;-84
2023/04/26 05:40:31;;;;;;;18.02;10.57;;;12.90;89.70;;;;;;4994362;28;20061;-84
2023/04/26 05:42:57;;;;;;;11.20;9.20;;;12.80;89.80;;;;;;5015422;28;20030;-82
2023/04/26 05:45:23;;;;;;;9.68;6.72;;;12.70;90.10;;;;;;4999252;28;20161;-82
2023/04/26 05:47:50;;;;;;;7.60;6.32;;;12.70;90.10;;;;;;5016674;28;20026;-82
2023/04/26 05:50:15;;;;;;;6.90;5.97;;;12.70;90.00;;;;;;5017116;28;20101;-81
2023/04/26 05:52:41;;;;;;;8.00;5.47;;;12.70;90.10;;;;;;5017670;28;20137;-83
2023/04/26 05:55:07;;;;;;;8.05;6.80;;;12.70;90.10;;;;;;5017156;28;20738;-83
2023/04/26 05:57:33;;;;;;;8.57;7.35;;;12.70;90.20;;;;;;5021655;28;20030;-82
2023/04/26 05:59:59;;;;;;;9.65;8.55;;;12.80;90.20;;;;;;5017035;28;20028;-82
2023/04/26 06:02:25;;;;;;;6.28;5.50;;;12.70;90.40;;;;;;5020369;28;20041;-82
2023/04/26 06:04:51;;;;;;;7.13;5.35;;;12.80;90.30;;;;;;5016190;28;20034;-82
2023/04/26 06:07:17;;;;;;;8.40;6.50;;;12.80;90.40;;;;;;5016233;28;20433;-83
2023/04/26 06:09:43;;;;;;;5.45;4.95;;;12.80;90.50;;;;;;5014732;28;20034;-82
2023/04/26 06:12:09;;;;;;;6.47;5.28;;;12.80;90.40;;;;;;4999048;28;20088;-83
2023/04/26 06:14:34;;;;;;;7.55;5.38;;;12.80;90.60;;;;;;5016467;28;20042;-83
2023/04/26 06:17:01;;;;;;;6.22;4.85;;;12.80;90.50;;;;;;4998951;28;20133;-82
2023/04/26 06:19:26;;;;;;;5.90;4.57;;;12.90;90.50;;;;;;4997856;28;20033;-85
2023/04/26 06:21:54;;;;;;;6.10;4.93;;;12.90;90.50;;;;;;5018225;28;20052;-91
2023/04/26 06:24:20;;;;;;;6.28;5.03;;;13.00;90.50;;;;;;4999027;28;20030;-86
2023/04/26 06:26:45;;;;;;;5.78;5.10;;;13.00;90.50;;;;;;5016790;28;20037;-86
2023/04/26 06:29:11;;;;;;;5.68;5.07;;;13.10;90.40;;;;;;5016439;28;20030;-86
2023/04/26 06:31:37;;;;;;;5.85;5.18;;;13.20;90.50;;;;;;5016987;28;20025;-90
2023/04/26 06:34:03;;;;;;;6.40;5.47;;;13.30;90.40;;;;;;4999852;28;20026;-90
2023/04/26 06:36:29;;;;;;;6.45;5.38;;;13.40;90.30;;;;;;4999215;28;20026;-89
2023/04/26 06:38:55;;;;;;;6.88;5.68;;;13.50;90.30;;;;;;4998993;28;20376;-91
2023/04/26 06:41:21;;;;;;;7.47;5.50;;;13.60;90.30;;;;;;5016739;28;20100;-86
2023/04/26 06:43:47;;;;;;;6.13;5.13;;;13.60;90.20;;;;;;5016312;28;20029;-86
2023/04/26 06:46:13;;;;;;;5.95;4.70;;;13.60;90.10;;;;;;5016500;28;20026;-86
2023/04/26 06:48:38;;;;;;;5.93;4.60;;;13.70;90.10;;;;;;5030972;28;20089;-86
2023/04/26 06:51:05;;;;;;;6.78;5.55;;;13.70;90.20;;;;;;5017887;28;20052;-86
2023/04/26 06:53:31;;;;;;;7.18;5.80;;;13.80;90.10;;;;;;5026872;28;20033;-85
2023/04/26 06:55:57;;;;;;;5.25;4.72;;;13.90;90.00;;;;;;5015988;28;20034;-86
2023/04/26 06:58:23;;;;;;;6.18;4.97;;;14.00;90.00;;;;;;5023477;28;20132;-85
2023/04/26 07:00:49;;;;;;;5.80;4.53;;;14.00;89.70;;;;;;5035669;28;20029;-84
2023/04/26 07:03:15;;;;;;;7.13;4.78;;;14.10;89.50;;;;;;5017762;28;20120;-85
2023/04/26 07:05:41;;;;;;;4.95;4.43;;;14.10;89.30;;;;;;5019096;28;20117;-81
2023/04/26 07:08:07;;;;;;;6.22;4.93;;;14.20;89.40;;;;;;5014101;28;20458;-83
2023/04/26 07:10:32;;;;;;;5.15;4.65;;;14.30;89.40;;;;;;5015109;28;20026;-84
2023/04/26 07:12:59;;;;;;;6.05;4.63;;;14.40;89.10;;;;;;5010571;28;20108;-82
2023/04/26 07:15:24;;;;;;;5.57;4.97;;;14.40;88.90;;;;;;5013095;28;20022;-82
2023/04/26 07:17:50;;;;;;;5.43;4.90;;;14.50;88.90;;;;;;5013862;28;20590;-81
2023/04/26 07:20:19;;;;;;;5.60;4.93;;;14.70;88.80;;;;;;5013236;28;20022;-81
2023/04/26 07:22:45;;;;;;;7.43;4.80;;;14.80;88.40;;;;;;5012566;28;20575;-80
2023/04/26 07:25:11;;;;;;;4.95;4.45;;;14.90;88.00;;;;;;5015633;28;20021;-81
2023/04/26 07:27:37;;;;;;;6.90;5.10;;;15.00;87.70;;;;;;5015460;28;20032;-79
2023/04/26 07:30:04;;;;;;;6.72;4.97;;;15.20;87.60;;;;;;5013150;28;20030;-79
2023/04/26 07:32:30;;;;;;;6.03;4.63;;;15.30;87.10;;;;;;4997057;28;20432;-80
2023/04/26 07:34:56;;;;;;;6.47;4.90;;;15.30;87.00;;;;;;5014809;28;20026;-80
2023/04/26 07:37:21;;;;;;;5.93;4.90;;;15.40;86.60;;;;;;5016021;28;20092;-80
2023/04/26 07:39:47;;;;;;;5.10;4.32;;;15.50;85.90;;;;;;5016491;28;20097;-81
2023/04/26 07:42:14;;;;;;;6.72;4.28;;;15.60;85.40;;;;;;5021310;28;20029;-81
2023/04/26 07:44:42;;;;;;;6.65;4.88;;;15.60;85.30;;;;;;5034808;28;20355;-81
2023/04/26 07:47:12;;;;;;;5.10;4.45;;;15.60;85.10;;;;;;5035462;28;20104;-81
2023/04/26 07:49:38;;;;;;;4.93;4.43;;;15.70;85.20;;;;;;5035549;28;20426;-81
2023/04/26 07:52:03;;;;;;;7.07;4.70;;;15.80;85.20;;;;;;5035280;28;20446;-80
2023/04/26 07:54:29;;;;;;;6.13;4.25;;;15.90;85.30;;;;;;5035429;28;20382;-80
2023/04/26 07:56:55;;;;;;;6.13;4.25;;;16.00;85.00;;;;;;5035352;28;20032;-81
2023/04/26 07:59:22;;;;;;;4.82;4.32;;;16.10;84.80;;;;;;5017053;28;20037;-82
2023/04/26 08:01:49;;;;;;;5.78;4.57;;;16.20;84.20;;;;;;5004689;28;20466;-82
2023/04/26 08:04:14;;;;;;;5.70;4.30;;;16.30;83.60;;;;;;5014317;28;20028;-82
2023/04/26 08:06:43;;;;;;;5.70;4.50;;;16.30;83.00;;;;;;5013945;28;20026;-84
2023/04/26 08:09:10;;;;;;;6.40;5.38;;;16.40;83.30;;;;;;5011828;28;20099;-81
2023/04/26 08:11:36;;;;;;;6.20;5.50;;;16.50;82.90;;;;;;5008212;28;20034;-82
2023/04/26 08:14:02;;;;;;;7.82;6.22;;;16.50;82.30;;;;;;4984618;28;20029;-82
2023/04/26 08:16:27;;;;;;;7.22;5.80;;;16.60;82.20;;;;;;5010694;28;20034;-82
2023/04/26 08:19:01;;;;;;;10.40;6.38;;;16.60;82.00;;;;;;4980290;28;20031;-83
2023/04/26 08:21:27;;;;;;;7.25;6.53;;;16.80;82.50;;;;;;4991892;28;20384;-82
2023/04/26 08:23:52;;;;;;;7.28;6.07;;;16.80;81.90;;;;;;5013484;28;20021;-83
2023/04/26 08:26:18;;;;;;;7.90;6.15;;;16.90;81.50;;;;;;5013287;28;20051;-82
2023/04/26 08:28:45;;;;;;;5.88;4.75;;;17.00;81.30;;;;;;5013441;28;20030;-83
2023/04/26 08:31:11;;;;;;;6.50;4.53;;;17.10;80.70;;;;;;5013042;28;20018;-82
2023/04/26 08:33:36;;;;;;;4.97;4.13;;;17.20;80.20;;;;;;5012858;28;20051;-82
2023/04/26 08:36:02;;;;;;;11.15;3.58;;;17.30;79.50;;;;;;5013427;28;20121;-82
2023/04/26 08:38:28;;;;;;;5.50;3.25;;;17.30;78.90;;;;;;5010909;28;20022;-82
2023/04/26 08:40:57;;;;;;;5.57;4.13;;;17.40;79.20;;;;;;5009456;28;20544;-82
2023/04/26 08:43:23;;;;;;;4.88;3.80;;;17.60;79.30;;;;;;5010459;28;20501;-80
2023/04/26 08:45:54;;;;;;;5.38;4.00;;;17.70;79.40;;;;;;4991319;28;20049;-82
2023/04/26 08:48:20;;;;;;;;;;;17.90;79.40;;;;;;4986190;28;20064;-82
2023/04/26 08:50:47;;;;;;;5.68;4.43;;;18.00;78.80;;;;;;5013019;28;19979;-82
2023/04/26 08:53:16;;;;;;;5.70;4.43;;;18.10;78.20;;;;;;5012423;28;20092;-82
2023/04/26 08:55:49;;;;;;;9.65;4.22;;;18.20;77.40;;;;;;5008006;28;20032;-82
2023/04/26 08:58:16;;;;;;;6.40;5.38;;;18.20;77.40;;;;;;5003944;28;20178;-82
2023/04/26 09:00:44;;;;;;;7.47;4.97;;;18.30;77.60;;;;;;5012232;28;20085;-82
2023/04/26 09:03:10;;;;;;;5.47;4.40;;;18.40;77.20;;;;;;5009859;28;20065;-82
2023/04/26 09:05:44;;;;;;;5.70;3.80;;;18.50;76.70;;;;;;5012861;28;20129;-82
2023/04/26 09:08:16;;;;;;;5.25;4.53;;;18.60;76.20;;;;;;5011059;28;20030;-82
2023/04/26 09:10:42;;;;;;;4.60;3.47;;;18.80;76.60;;;;;;4969930;28;1194506;-80
2023/04/26 09:13:08;;;;;;;3.92;2.70;;;18.90;76.00;;;;;;4995492;28;20053;-82
2023/04/26 09:15:34;;;;;;;4.30;3.03;;;19.00;75.50;;;;;;5016239;28;20482;-82
2023/04/26 09:18:20;;;;;;;4.90;3.67;;;19.10;74.60;;;;;;5012877;28;20034;-82
2023/04/26 09:21:07;;;;;;;3.78;3.30;;;19.20;74.30;;;;;;4999988;28;20026;-82
2023/04/26 09:23:32;;;;;;;4.40;3.40;;;19.40;73.80;;;;;;5000226;28;20045;-82
2023/04/26 09:26:20;;;;;;;4.60;3.60;;;19.40;74.00;;;;;;4995310;28;20394;-83
2023/04/26 09:28:46;;;;;;;7.25;3.85;;;19.60;74.20;;;;;;5006140;28;20109;-81
2023/04/26 09:31:42;;;;;;;4.05;3.42;;;19.70;74.00;;;;;;4993590;28;20118;-81
2023/04/26 09:34:11;;;;;;;3.85;3.00;;;19.90;73.40;;;;;;5008640;28;20038;-81
2023/04/26 09:36:50;;;;;;;11.20;3.65;;;20.00;73.30;;;;;;4992382;28;20030;-81
2023/04/26 09:39:39;;;;;;;4.38;3.70;;;20.10;72.30;;;;;;5010725;28;20022;-82
2023/04/26 09:42:05;;;;;;;3.67;3.08;;;20.20;71.90;;;;;;5008892;28;20374;-85
2023/04/26 09:44:32;;;;;;;3.97;3.25;;;20.30;72.20;;;;;;5014641;28;20112;-84
2023/04/26 09:46:58;;;;;;;4.10;3.33;;;20.50;72.00;;;;;;5027980;28;20022;-84
2023/04/26 09:49:26;;;;;;;4.90;3.53;;;20.60;71.70;;;;;;4995460;28;20117;-85
2023/04/26 09:52:03;;;;;;;3.10;2.80;;;20.80;71.40;;;;;;5026086;28;20049;-80
2023/04/26 09:54:46;;;;;;;3.70;3.03;;;21.00;71.10;;;;;;4993646;28;20030;-80
2023/04/26 09:57:15;;;;;;;2.92;2.63;;;21.20;70.10;;;;;;5012906;28;20076;-80
2023/04/26 09:59:52;;;;;;;2.50;2.28;;;21.30;69.10;;;;;;4995639;28;20030;-80
2023/04/26 10:02:22;;;;;;;3.67;2.58;;;21.40;68.70;;;;;;5012800;28;20710;-81
2023/04/26 10:04:53;;;;;;;4.32;2.42;;;21.40;68.40;;;;;;5013614;28;20030;-80
2023/04/26 10:07:20;;;;;;;4.97;2.40;;;21.50;68.30;;;;;;5013212;28;20364;-80
2023/04/26 10:09:47;;;;;;;3.33;2.20;;;21.60;68.60;;;;;;5012810;28;20064;-80
2023/04/26 10:12:15;;;;;;;3.67;2.47;;;21.80;68.50;;;;;;5010712;28;20045;-80
2023/04/26 10:14:43;;;;;;;3.97;2.38;;;21.90;67.70;;;;;;5010170;28;20072;-80
2023/04/26 10:17:09;;;;;;;4.25;2.85;;;22.00;67.80;;;;;;5011582;28;20049;-81
2023/04/26 10:19:36;;;;;;;4.55;3.00;;;22.10;67.60;;;;;;4995276;28;20030;-80
2023/04/26 10:22:08;;;;;;;3.63;1.95;;;22.30;67.70;;;;;;5013141;28;20049;-85
2023/04/26 10:24:35;;;;;;;2.05;1.25;;;22.30;65.70;;;;;;5013526;28;20045;-86
2023/04/26 10:27:03;;;;;;;3.22;1.75;;;22.30;64.00;;;;;;5013405;28;20030;-87
2023/04/26 10:29:54;;;;;;;1.98;1.40;;;22.30;63.20;;;;;;5013445;28;20105;-87
2023/04/26 10:32:21;;;;;;;3.83;1.40;;;22.40;60.70;;;;;;5003354;28;20133;-88
2023/04/26 10:35:12;;;;;;;2.08;1.20;;;22.40;61.70;;;;;;4999462;28;20109;-82
2023/04/26 10:37:57;;;;;;;1.13;0.95;;;22.50;61.70;;;;;;4998259;28;20363;-82
2023/04/26 10:40:26;;;;;;;2.17;1.20;;;22.60;60.50;;;;;;5015124;28;20038;-82
2023/04/26 10:43:14;;;;;;;2.25;1.63;;;22.80;61.10;;;;;;5014587;28;20040;-82
2023/04/26 10:45:42;;;;;;;1.10;1.00;;;22.90;59.90;;;;;;5016326;28;20466;-82
2023/04/26 10:48:13;;;;;;;1.63;1.27;;;23.00;60.50;;;;;;5016175;28;20029;-82
2023/04/26 10:51:00;;;;;;;2.33;1.38;;;23.10;60.50;;;;;;5004817;28;20100;-86
2023/04/26 10:53:28;;;;;;;1.27;1.17;;;23.20;59.70;;;;;;5007298;28;20053;-86
2023/04/26 10:55:53;;;;;;;1.70;1.60;;;23.30;59.90;;;;;;5025039;28;20099;-86
2023/04/26 10:58:33;;;;;;;1.92;1.67;;;23.50;60.50;;;;;;5015827;28;20454;-84
2023/04/26 11:01:12;;;;;;;2.58;1.80;;;23.60;60.40;;;;;;5015782;28;20034;-84
2023/04/26 11:03:39;;;;;;;2.40;1.77;;;23.70;60.40;;;;;;5010155;28;20481;-84
2023/04/26 11:06:12;;;;;;;2.92;2.17;;;23.80;61.10;;;;;;5017502;28;20026;-84
2023/04/26 11:08:38;;;;;;;2.83;2.20;;;23.90;58.90;;;;;;5016052;28;20022;-84
2023/04/26 11:11:07;;;;;;;3.03;2.20;;;23.90;58.90;;;;;;5015225;28;20057;-84
2023/04/26 11:13:38;;;;;;;2.63;2.30;;;23.70;59.60;;;;;;5015665;28;20030;-84
2023/04/26 11:16:06;;;;;;;2.33;1.90;;;23.70;60.20;;;;;;5015527;28;20331;-84
2023/04/26 11:18:33;;;;;;;2.28;2.08;;;23.70;61.20;;;;;;5015011;28;20022;-84
2023/04/26 11:20:59;;;;;;;2.55;2.10;;;23.90;61.00;;;;;;5014785;28;20474;-84
2023/04/26 11:23:29;;;;;;;2.65;1.65;;;24.10;60.40;;;;;;5015162;28;20042;-84
2023/04/26 11:25:59;;;;;;;;;;;24.20;59.60;;;;;;5015197;28;20030;-82
2023/04/26 11:28:24;;;;;;;2.60;1.88;;;24.40;58.10;;;;;;5014960;28;20020;-81
2023/04/26 11:30:50;;;;;;;2.13;1.58;;;24.50;58.70;;;;;;4995742;28;20108;-82
2023/04/26 11:33:18;;;;;;;1.40;1.30;;;24.70;58.30;;;;;;5015036;28;20026;-82
2023/04/26 11:35:48;;;;;;;2.10;1.55;;;24.80;57.10;;;;;;5013847;28;20038;-83
2023/04/26 11:38:14;;;;;;;1.52;1.15;;;24.90;55.80;;;;;;5015071;28;20061;-82
2023/04/26 11:40:40;;;;;;;3.03;2.55;;;25.00;56.50;;;;;;5015031;28;20018;-82
2023/04/26 11:43:07;;;;;;;4.95;3.10;;;25.20;56.70;;;;;;5014844;28;20032;-86
2023/04/26 11:45:35;;;;;;;3.05;2.00;;;25.30;56.70;;;;;;5014690;28;20030;-84
2023/04/26 11:48:03;;;;;;;3.28;2.38;;;25.30;57.10;;;;;;5012989;28;20378;-83
2023/04/26 11:50:31;;;;;;;2.83;2.08;;;25.30;55.60;;;;;;4997195;28;20022;-81
2023/04/26 11:52:59;;;;;;;3.08;2.20;;;25.40;56.20;;;;;;4997138;28;20030;-81
2023/04/26 11:55:30;;;;;;;2.58;1.95;;;25.50;55.70;;;;;;5014908;28;20030;-85
2023/04/26 11:57:57;;;;;;;2.97;2.25;;;25.60;56.00;;;;;;5024089;28;20033;-85
2023/04/26 12:00:23;;;;;;;2.22;1.90;;;25.90;55.80;;;;;;5034967;28;20465;-85
2023/04/26 12:02:50;;;;;;;3.25;2.65;;;26.10;55.00;;;;;;5035386;28;20022;-85
2023/04/26 12:05:27;;;;;;;4.40;2.60;;;26.20;54.70;;;;;;5025062;28;20021;-89
2023/04/26 12:07:55;;;;;;;3.38;2.53;;;26.30;54.50;;;;;;5015659;28;20101;-89
2023/04/26 12:10:36;;;;;;;3.20;2.42;;;26.20;54.60;;;;;;5015394;28;20327;-88
2023/04/26 12:13:02;;;;;;;4.93;3.20;;;26.20;56.00;;;;;;5014903;28;20087;-86
2023/04/26 12:15:30;;;;;;;5.40;2.97;;;26.30;55.30;;;;;;5014759;28;20018;-85
2023/04/26 12:18:13;;;;;;;3.72;2.80;;;26.50;54.90;;;;;;4996321;28;20038;-83
2023/04/26 12:20:41;;;;;;;2.45;2.15;;;26.70;54.80;;;;;;5004030;28;20030;-83
2023/04/26 12:23:09;;;;;;;4.75;3.05;;;26.90;54.20;;;;;;5012507;28;20469;-82
2023/04/26 12:25:37;;;;;;;4.05;2.85;;;27.00;53.70;;;;;;4998571;28;20040;-82
2023/04/26 12:28:10;;;;;;;3.83;3.08;;;27.10;53.60;;;;;;4996574;28;20054;-86
2023/04/26 12:30:36;;;;;;;4.85;3.10;;;27.20;52.60;;;;;;5014311;28;20096;-86
2023/04/26 12:33:02;;;;;;;3.22;2.65;;;27.40;52.10;;;;;;5013796;28;20112;-86
2023/04/26 12:35:28;;;;;;;3.00;2.60;;;27.50;52.40;;;;;;5014204;28;20018;-86
2023/04/26 12:37:55;;;;;;;5.10;3.38;;;27.50;51.00;;;;;;5013952;28;20030;-86
2023/04/26 12:40:22;;;;;;;4.05;3.00;;;27.60;51.40;;;;;;5013720;28;20022;-84
2023/04/26 12:42:49;;;;;;;3.00;2.70;;;27.70;51.60;;;;;;5018065;28;20060;-84
2023/04/26 12:45:17;;;;;;;6.22;3.25;;;27.80;51.30;;;;;;5017868;28;20030;-81
2023/04/26 12:47:43;;;;;;;4.55;3.20;;;27.90;51.30;;;;;;5013597;28;20076;-81
2023/04/26 12:50:11;;;;;;;4.30;3.33;;;27.90;51.20;;;;;;4993476;28;20378;-81